地図

経路データ

SID SEASON NUMBER BASIN SUBBASIN NAME ISO_TIME NATURE LAT LON WMO_WIND WMO_PRES WMO_AGENCY TRACK_TYPE DIST2LAND LANDFALL IFLAG USA_AGENCY USA_ATCF_ID USA_LAT USA_LON USA_RECORD USA_STATUS USA_WIND USA_PRES USA_SSHS USA_R34_NE USA_R34_SE USA_R34_SW USA_R34_NW USA_R50_NE USA_R50_SE USA_R50_SW USA_R50_NW USA_R64_NE USA_R64_SE USA_R64_SW USA_R64_NW USA_POCI USA_ROCI USA_RMW USA_EYE TOKYO_LAT TOKYO_LON TOKYO_GRADE TOKYO_WIND TOKYO_PRES TOKYO_R50_DIR TOKYO_R50_LONG TOKYO_R50_SHORT TOKYO_R30_DIR TOKYO_R30_LONG TOKYO_R30_SHORT TOKYO_LAND CMA_LAT CMA_LON CMA_CAT CMA_WIND CMA_PRES HKO_LAT HKO_LON HKO_CAT HKO_WIND HKO_PRES NEWDELHI_LAT NEWDELHI_LON NEWDELHI_GRADE NEWDELHI_WIND NEWDELHI_PRES NEWDELHI_CI NEWDELHI_DP NEWDELHI_POCI REUNION_LAT REUNION_LON REUNION_TYPE REUNION_WIND REUNION_PRES REUNION_TNUM REUNION_CI REUNION_RMW REUNION_R34_NE REUNION_R34_SE REUNION_R34_SW REUNION_R34_NW REUNION_R50_NE REUNION_R50_SE REUNION_R50_SW REUNION_R50_NW REUNION_R64_NE REUNION_R64_SE REUNION_R64_SW REUNION_R64_NW BOM_LAT BOM_LON BOM_TYPE BOM_WIND BOM_PRES BOM_TNUM BOM_CI BOM_RMW BOM_R34_NE BOM_R34_SE BOM_R34_SW BOM_R34_NW BOM_R50_NE BOM_R50_SE BOM_R50_SW BOM_R50_NW BOM_R64_NE BOM_R64_SE BOM_R64_SW BOM_R64_NW BOM_ROCI BOM_POCI BOM_EYE BOM_POS_METHOD BOM_PRES_METHOD NADI_LAT NADI_LON NADI_CAT NADI_WIND NADI_PRES WELLINGTON_LAT WELLINGTON_LON WELLINGTON_WIND WELLINGTON_PRES DS824_LAT DS824_LON DS824_STAGE DS824_WIND DS824_PRES TD9636_LAT TD9636_LON TD9636_STAGE TD9636_WIND TD9636_PRES TD9635_LAT TD9635_LON TD9635_WIND TD9635_PRES TD9635_ROCI NEUMANN_LAT NEUMANN_LON NEUMANN_CLASS NEUMANN_WIND NEUMANN_PRES MLC_LAT MLC_LON MLC_CLASS MLC_WIND MLC_PRES USA_GUST BOM_GUST BOM_GUST_PER REUNION_GUST REUNION_GUST_PER USA_SEAHGT USA_SEARAD_NE USA_SEARAD_SE USA_SEARAD_SW USA_SEARAD_NW STORM_SPEED STORM_DIR
1891236N19122 1891 24 WP MM NOT_NAMED 1891-08-23 16:00:00 NR 19.3000 122.300 main 100 100 __________O___ -1 19.3000 122.300 4 3 272
1891236N19122 1891 24 WP MM NOT_NAMED 1891-08-23 18:00:00 NR 19.3035 122.199 main 100 100 __________P___ -1 19.3035 122.199 4 3 273
1891236N19122 1891 24 WP MM NOT_NAMED 1891-08-23 21:00:00 NR 19.3137 122.028 main 101 98 __________P___ -1 19.3137 122.028 4 4 275
1891236N19122 1891 24 WP MM NOT_NAMED 1891-08-24 00:00:00 NR 19.3367 121.811 main 98 94 __________P___ -1 19.3367 121.811 4 5 278
1891236N19122 1891 24 WP MM NOT_NAMED 1891-08-24 03:00:00 NR 19.3798 121.519 main 101 100 __________P___ -1 19.3798 121.519 4 6 279
1891236N19122 1891 24 WP MM NOT_NAMED 1891-08-24 04:00:00 NR 19.4000 121.400 main 100 94 __________O___ -1 19.4000 121.400 4 8 281
1891236N19122 1891 24 WP MM NOT_NAMED 1891-08-24 06:00:00 NR 19.4502 121.126 main 102 100 __________P___ -1 19.4502 121.126 4 9 282
1891236N19122 1891 24 WP MM NOT_NAMED 1891-08-24 09:00:00 NR 19.5503 120.640 main 113 113 __________P___ -1 19.5503 120.640 4 10 283
1891236N19122 1891 24 WP MM NOT_NAMED 1891-08-24 12:00:00 NR 19.6801 120.088 main 143 143 __________P___ -1 19.6801 120.088 4 11 285
1891236N19122 1891 24 WP MM NOT_NAMED 1891-08-24 15:00:00 NR 19.8400 119.500 main 191 191 __________P___ -1 19.8400 119.500 4 12 287
1891236N19122 1891 24 WP MM NOT_NAMED 1891-08-24 16:00:00 NR 19.9000 119.300 main 214 214 __________O___ -1 19.9000 119.300 4 12 288
1891236N19122 1891 24 WP MM NOT_NAMED 1891-08-24 18:00:00 NR 20.0301 118.894 main 252 252 __________P___ -1 20.0301 118.894 4 12 290
1891236N19122 1891 24 WP MM NOT_NAMED 1891-08-24 21:00:00 NR 20.2505 118.265 main 306 291 __________P___ -1 20.2505 118.265 4 13 291
1891236N19122 1891 24 WP MM NOT_NAMED 1891-08-25 00:00:00 NR 20.4869 117.646 main 291 253 __________P___ -1 20.4869 117.646 4 12 293
1891236N19122 1891 24 WP MM NOT_NAMED 1891-08-25 03:00:00 NR 20.7236 117.074 main 253 238 __________P___ -1 20.7236 117.074 4 11 294
1891236N19122 1891 24 WP MM NOT_NAMED 1891-08-25 04:00:00 NR 20.8000 116.900 main 238 217 __________O___ -1 20.8000 116.900 4 10 296
1891236N19122 1891 24 WP MM NOT_NAMED 1891-08-25 06:00:00 NR 20.9382 116.598 main 217 183 __________P___ -1 20.9382 116.598 4 9 298
1891236N19122 1891 24 WP MM NOT_NAMED 1891-08-25 09:00:00 NR 21.1399 116.202 main 183 156 __________P___ -1 21.1399 116.202 4 8 300
1891236N19122 1891 24 WP MM NOT_NAMED 1891-08-25 12:00:00 NR 21.3376 115.850 main 156 127 __________P___ -1 21.3376 115.850 4 8 302
1891236N19122 1891 24 WP MM NOT_NAMED 1891-08-25 15:00:00 NR 21.5342 115.514 main 127 113 __________P___ -1 21.5342 115.514 4 7 302
1891236N19122 1891 24 WP MM NOT_NAMED 1891-08-25 16:00:00 NR 21.6000 115.400 main 113 94 __________O___ -1 21.6000 115.400 4 8 302
1891236N19122 1891 24 WP MM NOT_NAMED 1891-08-25 18:00:00 NR 21.7489 115.150 main 94 56 __________P___ -1 21.7489 115.150 4 8 303
1891236N19122 1891 24 WP MM NOT_NAMED 1891-08-25 21:00:00 NR 21.9727 114.775 main 56 15 __________P___ -1 21.9727 114.775 4 8 302
1891236N19122 1891 24 WP MM NOT_NAMED 1891-08-26 00:00:00 NR 22.1804 114.400 main 15 0 __________P___ -1 22.1804 114.400 4 8 299
1891236N19122 1891 24 WP MM NOT_NAMED 1891-08-26 03:00:00 NR 22.3533 114.025 main 0 0 __________P___ -1 22.3533 114.025 4 8 295
1891236N19122 1891 24 WP MM NOT_NAMED 1891-08-26 04:00:00 NR 22.4000 113.900 main 0 0 __________O___ -1 22.4000 113.900 4 7 290
1891236N19122 1891 24 WP MM NOT_NAMED 1891-08-26 06:00:00 NR 22.4752 113.652 main 15 0 __________P___ -1 22.4752 113.652 4 7 285
1891236N19122 1891 24 WP MM NOT_NAMED 1891-08-26 09:00:00 NR 22.5505 113.281 main 0 0 __________P___ -1 22.5505 113.281 4 7 279
1891236N19122 1891 24 WP MM NOT_NAMED 1891-08-26 12:00:00 NR 22.5892 112.908 main 0 0 __________P___ -1 22.5892 112.908 4 7 274
1891236N19122 1891 24 WP MM NOT_NAMED 1891-08-26 15:00:00 NR 22.6006 112.528 main 0 0 __________P___ -1 22.6006 112.528 4 7 271
1891236N19122 1891 24 WP MM NOT_NAMED 1891-08-26 16:00:00 NR 22.6000 112.400 main 0 0 __________O___ -1 22.6000 112.400 4 7 269
1891236N19122 1891 24 WP MM NOT_NAMED 1891-08-26 18:00:00 NR 22.5939 112.140 main 0 0 __________P___ -1 22.5939 112.140 4 7 268
1891236N19122 1891 24 WP MM NOT_NAMED 1891-08-26 21:00:00 NR 22.5745 111.744 main 0 0 __________P___ -1 22.5745 111.744 4 7 266
1891236N19122 1891 24 WP MM NOT_NAMED 1891-08-27 00:00:00 NR 22.5461 111.341 main 0 0 __________P___ -1 22.5461 111.341 4 7 265
1891236N19122 1891 24 WP MM NOT_NAMED 1891-08-27 03:00:00 NR 22.5120 110.935 main 0 0 __________P___ -1 22.5120 110.935 4 8 265
1891236N19122 1891 24 WP MM NOT_NAMED 1891-08-27 04:00:00 NR 22.5000 110.800 main 0 __________O___ -1 22.5000 110.800 4 8 264

デジタル台風データ・検索

IBTrACS Databaseについて

本データベースは、米国NOAAが公開する1842年以降の世界の熱帯低気圧のベストトラックデータアーカイブInternational Best Track Archive for Climate Stewardship (IBTrACS)を、ウェブで閲覧しやすい形式に変換したものです。

最終更新日:2021-10-25